createdAt,value
2018-02-20T00:00:45.863Z,51.20
2018-02-20T00:03:14.140Z,44.75
2018-02-20T00:05:42.275Z,51.78
2018-02-20T00:08:11.174Z,52.62
2018-02-20T00:10:40.194Z,52.85
2018-02-20T00:13:08.362Z,50.60
2018-02-20T00:15:36.505Z,47.80
2018-02-20T00:18:05.446Z,60.83
2018-02-20T00:20:33.600Z,51.97
2018-02-20T00:23:04.539Z,54.33
2018-02-20T00:25:32.670Z,54.45
2018-02-20T00:28:01.598Z,52.78
2018-02-20T00:30:29.729Z,52.70
2018-02-20T00:32:57.901Z,54.10
2018-02-20T00:35:26.035Z,54.75
2018-02-20T00:37:54.198Z,51.60
2018-02-20T00:40:22.337Z,54.28
2018-02-20T00:42:51.270Z,55.03
2018-02-20T00:45:19.425Z,55.92
2018-02-20T00:47:47.602Z,53.75
2018-02-20T00:50:15.776Z,60.12
2018-02-20T00:52:43.911Z,52.40
2018-02-20T00:55:13.458Z,52.85
2018-02-20T00:57:41.626Z,67.00
2018-02-20T01:00:09.795Z,54.83
2018-02-20T01:02:37.949Z,51.60
2018-02-20T01:05:06.087Z,60.88
2018-02-20T01:07:34.241Z,60.15
2018-02-20T01:10:02.369Z,57.78
2018-02-20T01:12:30.578Z,55.53
2018-02-20T01:14:58.721Z,56.10
2018-02-20T01:17:26.883Z,57.33
2018-02-20T01:19:55.013Z,58.67
2018-02-20T01:22:23.181Z,60.65
2018-02-20T01:24:51.317Z,60.05
2018-02-20T01:27:19.451Z,56.35
2018-02-20T01:29:48.854Z,67.95
2018-02-20T01:32:17.750Z,55.12
2018-02-20T01:34:46.671Z,63.63
2018-02-20T01:37:14.848Z,56.00
2018-02-20T01:39:42.985Z,61.55
2018-02-20T01:42:11.889Z,59.08
2018-02-20T01:44:40.042Z,61.08
2018-02-20T01:47:08.177Z,57.35
2018-02-20T01:49:36.351Z,61.15
2018-02-20T01:52:04.486Z,64.53
2018-02-20T01:54:32.645Z,69.43
2018-02-20T01:57:01.549Z,57.65
2018-02-20T01:59:29.682Z,63.30
2018-02-20T02:01:57.838Z,65.43
2018-02-20T02:04:25.974Z,65.45
2018-02-20T02:06:54.525Z,61.47
2018-02-20T02:09:23.429Z,69.90
2018-02-20T02:11:51.602Z,71.22
2018-02-20T02:14:19.803Z,65.30
2018-02-20T02:16:47.953Z,64.62
2018-02-20T02:19:16.153Z,73.20
2018-02-20T02:21:44.289Z,74.47
2018-02-20T02:24:13.223Z,65.45
2018-02-20T02:26:42.105Z,71.37
2018-02-20T02:29:10.244Z,65.50
2018-02-20T02:31:38.438Z,69.10
2018-02-20T02:34:06.574Z,65.87
2018-02-20T02:36:36.087Z,72.03
2018-02-20T02:39:04.271Z,66.65
2018-02-20T02:41:32.439Z,73.40
2018-02-20T02:44:00.581Z,76.00
2018-02-20T02:46:29.497Z,67.72
2018-02-20T02:48:58.445Z,78.00
2018-02-20T02:51:26.687Z,62.83
2018-02-20T02:53:54.874Z,64.30
2018-02-20T02:56:23.031Z,77.00
2018-02-20T02:58:51.206Z,69.35
2018-02-20T03:01:19.602Z,69.60
2018-02-20T03:03:48.039Z,66.78
2018-02-20T03:06:16.240Z,63.80
2018-02-20T03:08:44.420Z,77.97
2018-02-20T03:11:12.568Z,74.32
2018-02-20T03:13:40.757Z,71.75
2018-02-20T03:16:08.914Z,69.40
2018-02-20T03:18:37.045Z,72.68
2018-02-20T03:21:05.281Z,75.78
2018-02-20T03:23:33.434Z,80.07
2018-02-20T03:26:01.571Z,73.62
2018-02-20T03:28:29.793Z,77.93
2018-02-20T03:30:57.960Z,77.18
2018-02-20T03:33:26.129Z,78.07
2018-02-20T03:35:54.310Z,79.60
2018-02-20T03:38:22.469Z,68.62
2018-02-20T03:40:50.602Z,71.35
2018-02-20T03:43:19.547Z,68.95
2018-02-20T03:45:47.678Z,71.45
2018-02-20T03:48:16.606Z,67.68
2018-02-20T03:50:44.738Z,71.90
2018-02-20T03:53:13.658Z,74.80
2018-02-20T03:55:41.850Z,77.85
2018-02-20T03:58:10.024Z,68.82
2018-02-20T04:00:38.162Z,85.28
2018-02-20T04:03:07.182Z,71.65
2018-02-20T04:05:35.318Z,77.00
2018-02-20T04:08:04.226Z,80.25
2018-02-20T04:10:32.380Z,85.62
2018-02-20T04:13:01.414Z,83.40
2018-02-20T04:15:29.589Z,80.95
2018-02-20T04:17:57.746Z,82.72
2018-02-20T04:20:25.919Z,87.78
2018-02-20T04:22:54.078Z,78.97
2018-02-20T04:25:22.627Z,78.35
2018-02-20T04:27:50.781Z,79.25
2018-02-20T04:30:18.910Z,86.85
2018-02-20T04:32:47.073Z,81.87
2018-02-20T04:35:16.003Z,82.40
2018-02-20T04:37:44.166Z,80.68
2018-02-20T04:40:12.323Z,80.35
2018-02-20T04:42:40.504Z,83.62
2018-02-20T04:45:08.649Z,81.97
2018-02-20T04:47:37.590Z,80.10
2018-02-20T04:50:06.343Z,76.22
2018-02-20T04:52:34.482Z,81.15
2018-02-20T04:55:02.638Z,79.10
2018-02-20T04:57:30.779Z,90.38
2018-02-20T04:59:58.987Z,74.78
2018-02-20T05:02:27.231Z,77.22
2018-02-20T05:04:55.366Z,77.22
2018-02-20T05:07:24.294Z,78.70
2018-02-20T05:09:52.426Z,82.28
2018-02-20T05:12:20.913Z,70.25
2018-02-20T05:14:49.074Z,80.53
2018-02-20T05:17:17.989Z,83.62
2018-02-20T05:19:46.187Z,81.43
2018-02-20T05:22:14.326Z,80.53
2018-02-20T05:24:42.461Z,79.70
2018-02-20T05:27:10.617Z,85.00
2018-02-20T05:29:38.755Z,93.87
2018-02-20T05:32:06.911Z,79.40
2018-02-20T05:34:35.073Z,84.18
2018-02-20T05:37:04.620Z,85.10
2018-02-20T05:39:33.614Z,81.05
2018-02-20T05:42:01.764Z,90.57
2018-02-20T05:44:29.930Z,89.53
2018-02-20T05:46:58.075Z,87.82
2018-02-20T05:49:26.978Z,88.60
2018-02-20T05:51:55.906Z,84.07
2018-02-20T05:54:24.045Z,82.85
2018-02-20T05:56:52.969Z,90.32
2018-02-20T05:59:21.106Z,83.53
2018-02-20T06:01:50.052Z,82.78
2018-02-20T06:04:18.202Z,86.32
2018-02-20T06:06:46.354Z,83.22
2018-02-20T06:09:14.525Z,76.95
2018-02-20T06:11:42.659Z,78.57
2018-02-20T06:14:10.794Z,83.32
2018-02-20T06:16:38.977Z,78.50
2018-02-20T06:19:07.110Z,90.93
2018-02-20T06:21:35.274Z,87.80
2018-02-20T06:24:04.174Z,81.00
2018-02-20T06:26:32.318Z,85.55
2018-02-20T06:29:00.590Z,96.18
2018-02-20T06:31:28.821Z,84.93
2018-02-20T06:33:56.980Z,81.07
2018-02-20T06:36:25.117Z,92.05
2018-02-20T06:38:53.272Z,86.18
2018-02-20T06:41:21.468Z,87.30
2018-02-20T06:43:50.388Z,91.15
2018-02-20T06:46:18.554Z,69.00
2018-02-20T06:48:46.694Z,100.38
2018-02-20T06:51:14.854Z,93.37
2018-02-20T06:53:42.987Z,80.57
2018-02-20T06:56:11.154Z,89.30
2018-02-20T06:58:39.622Z,89.05
2018-02-20T07:01:07.814Z,75.47
2018-02-20T07:03:36.045Z,78.22
2018-02-20T07:06:04.990Z,91.20
2018-02-20T07:08:33.180Z,90.43
2018-02-20T07:11:01.329Z,83.65
2018-02-20T07:13:29.484Z,84.72
2018-02-20T07:15:57.614Z,82.03
2018-02-20T07:18:25.781Z,93.03
2018-02-20T07:20:53.917Z,80.10
2018-02-20T07:23:22.098Z,97.47
2018-02-20T07:25:50.374Z,77.07
2018-02-20T07:28:18.505Z,77.50
2018-02-20T07:30:47.433Z,81.28
2018-02-20T07:33:15.578Z,73.87
2018-02-20T07:35:43.744Z,79.65
2018-02-20T07:38:12.705Z,88.37
2018-02-20T07:40:41.631Z,83.50
2018-02-20T07:43:09.798Z,85.35
2018-02-20T07:45:38.706Z,71.75
2018-02-20T07:48:07.104Z,70.12
2018-02-20T07:50:35.371Z,85.10
2018-02-20T07:53:03.531Z,81.90
2018-02-20T07:55:31.705Z,90.53
2018-02-20T07:57:59.895Z,77.00
2018-02-20T08:00:28.070Z,73.75
2018-02-20T08:02:56.413Z,73.47
2018-02-20T08:05:24.607Z,72.07
2018-02-20T08:07:52.794Z,80.75
2018-02-20T08:10:20.925Z,84.15
2018-02-20T08:12:50.189Z,75.85
2018-02-20T08:15:18.322Z,75.30
2018-02-20T08:17:46.454Z,71.55
2018-02-20T08:20:15.373Z,79.70
2018-02-20T08:22:43.515Z,88.20
2018-02-20T08:25:11.977Z,90.00
2018-02-20T08:27:40.155Z,79.93
2018-02-20T08:30:08.290Z,81.85
2018-02-20T08:32:36.455Z,82.37
2018-02-20T08:35:04.591Z,75.87
2018-02-20T08:37:33.510Z,74.25
2018-02-20T08:40:01.699Z,72.82
2018-02-20T08:42:29.907Z,86.87
2018-02-20T08:44:58.019Z,80.28
2018-02-20T08:47:26.229Z,81.97
2018-02-20T08:49:54.678Z,81.70
2018-02-20T08:52:22.866Z,94.43
2018-02-20T08:54:51.042Z,80.68
2018-02-20T08:57:19.202Z,85.82
2018-02-20T08:59:47.511Z,70.72
2018-02-20T09:02:15.711Z,86.68
2018-02-20T09:04:43.857Z,86.30
2018-02-20T09:07:12.046Z,77.80
2018-02-20T09:09:40.174Z,71.80
2018-02-20T09:12:08.344Z,85.40
2018-02-20T09:14:36.484Z,77.57
2018-02-20T09:17:05.395Z,85.38
2018-02-20T09:19:33.562Z,88.97
2018-02-20T09:22:01.703Z,78.80
2018-02-20T09:24:29.964Z,78.78
2018-02-20T09:26:58.150Z,94.60
2018-02-20T09:29:26.305Z,95.00
2018-02-20T09:31:54.465Z,78.57
2018-02-20T09:34:22.629Z,76.03
2018-02-20T09:36:51.170Z,77.95
2018-02-20T09:39:20.086Z,82.47
2018-02-20T09:41:48.257Z,80.03
2018-02-20T09:44:16.402Z,88.12
2018-02-20T09:46:45.417Z,74.78
2018-02-20T09:49:13.586Z,79.15
2018-02-20T09:51:41.754Z,86.12
2018-02-20T09:54:09.974Z,83.37
2018-02-20T09:56:38.126Z,83.32
2018-02-20T09:59:06.271Z,84.95
2018-02-20T10:01:34.438Z,81.07
2018-02-20T10:04:02.584Z,87.60
2018-02-20T10:06:30.770Z,81.93
2018-02-20T10:08:59.315Z,80.83
2018-02-20T10:11:28.242Z,81.20
2018-02-20T10:13:57.182Z,75.10
2018-02-20T10:16:26.154Z,73.43
2018-02-20T10:18:54.302Z,74.73
2018-02-20T10:21:23.231Z,71.93
2018-02-20T10:23:51.372Z,76.37
2018-02-20T10:26:20.277Z,82.00
2018-02-20T10:28:48.458Z,87.73
2018-02-20T10:31:16.593Z,74.37
2018-02-20T10:33:44.733Z,80.03
2018-02-20T10:36:12.995Z,72.60
2018-02-20T10:38:41.142Z,78.20
2018-02-20T10:41:09.295Z,67.80
2018-02-20T10:43:38.246Z,83.10
2018-02-20T10:46:06.398Z,65.90
2018-02-20T10:48:34.547Z,69.13
2018-02-20T10:51:02.722Z,73.13
2018-02-20T10:53:30.894Z,68.27
2018-02-20T10:55:59.038Z,73.37
2018-02-20T10:58:27.424Z,85.67
2018-02-20T11:00:56.341Z,92.23
2018-02-20T11:03:24.494Z,111.43
2018-02-20T11:05:53.439Z,82.07
2018-02-20T11:08:21.594Z,72.10
2018-02-20T11:10:49.742Z,76.33
2018-02-20T11:13:17.940Z,67.40
2018-02-20T11:15:46.111Z,65.27
2018-02-20T11:18:14.280Z,75.27
2018-02-20T11:20:42.455Z,61.80
2018-02-20T11:23:11.162Z,69.57
2018-02-20T11:25:39.382Z,65.17
2018-02-20T11:28:07.594Z,57.40
2018-02-20T11:30:35.774Z,63.93
2018-02-20T11:33:03.914Z,64.20
2018-02-20T11:35:32.733Z,62.17
2018-02-20T11:38:00.923Z,66.30
2018-02-20T11:40:29.099Z,62.67
2018-02-20T11:42:57.328Z,69.40
2018-02-20T11:45:25.474Z,83.60
2018-02-20T11:47:54.431Z,71.47
2018-02-20T11:50:23.111Z,62.80
2018-02-20T11:52:51.888Z,60.33
2018-02-20T11:55:20.063Z,54.20
2018-02-20T11:57:48.323Z,66.47
2018-02-20T12:00:16.845Z,60.90
2018-02-20T12:02:44.989Z,55.63
2018-02-20T12:05:13.150Z,58.13
2018-02-20T12:07:41.293Z,56.43
2018-02-20T12:10:10.290Z,57.97
2018-02-20T12:12:38.462Z,58.40
2018-02-20T12:15:06.605Z,70.77
2018-02-20T12:17:34.776Z,58.97
2018-02-20T12:20:03.288Z,61.13
2018-02-20T12:22:32.315Z,62.40
2018-02-20T12:25:00.623Z,56.70
2018-02-20T12:27:28.794Z,59.90
2018-02-20T12:29:57.034Z,52.50
2018-02-20T12:32:25.414Z,58.17
2018-02-20T12:34:54.176Z,53.27
2018-02-20T12:37:22.370Z,48.93
2018-02-20T12:39:50.513Z,50.30
2018-02-20T12:42:19.413Z,48.43
2018-02-20T12:44:47.606Z,54.27
2018-02-20T12:47:15.747Z,52.63
2018-02-20T12:49:44.649Z,63.17
2018-02-20T12:52:12.834Z,46.80
2018-02-20T12:54:41.010Z,50.27
2018-02-20T12:57:09.199Z,43.13
2018-02-20T12:59:37.367Z,50.07
2018-02-20T13:02:05.526Z,55.43
2018-02-20T13:04:33.727Z,56.53
2018-02-20T13:07:02.474Z,54.00
2018-02-20T13:09:30.645Z,45.57
2018-02-20T13:11:59.487Z,49.30
2018-02-20T13:14:27.640Z,54.93
2018-02-20T13:16:55.819Z,46.20
2018-02-20T13:19:23.959Z,46.70
2018-02-20T13:21:52.101Z,44.40
2018-02-20T13:24:21.033Z,47.30
2018-02-20T13:26:49.175Z,42.10
2018-02-20T13:29:18.098Z,45.40
2018-02-20T13:31:46.263Z,43.50
2018-02-20T13:34:14.431Z,43.37
2018-02-20T13:36:42.578Z,43.83
2018-02-20T13:39:11.530Z,43.50
2018-02-20T13:41:40.098Z,47.57
2018-02-20T13:44:08.271Z,41.43
2018-02-20T13:46:39.261Z,42.47
2018-02-20T13:49:08.194Z,44.37
2018-02-20T13:51:36.371Z,39.47
2018-02-20T13:54:04.553Z,42.30
2018-02-20T13:56:32.723Z,46.27
2018-02-20T13:59:00.883Z,44.33
2018-02-20T14:01:29.048Z,43.43
2018-02-20T14:03:57.191Z,38.80
2018-02-20T14:06:26.090Z,46.07
2018-02-20T14:08:54.295Z,41.60
2018-02-20T14:11:22.436Z,40.77
2018-02-20T14:13:50.581Z,36.43
2018-02-20T14:16:18.747Z,34.07
2018-02-20T14:18:47.030Z,41.50
2018-02-20T14:21:16.038Z,39.73
2018-02-20T14:23:44.966Z,39.80
2018-02-20T14:26:13.138Z,39.93
2018-02-20T14:28:41.286Z,42.50
2018-02-20T14:31:09.435Z,53.00
2018-02-20T14:33:38.375Z,39.23
2018-02-20T14:36:06.526Z,42.77
2018-02-20T14:38:34.718Z,45.80
2018-02-20T14:41:02.905Z,39.07
2018-02-20T14:43:31.078Z,40.67
2018-02-20T14:45:59.251Z,42.10
2018-02-20T14:48:27.390Z,40.60
2018-02-20T14:50:55.542Z,37.80
2018-02-20T14:53:24.482Z,38.70
2018-02-20T14:55:52.659Z,39.00
2018-02-20T14:58:20.800Z,41.10
2018-02-20T15:00:48.943Z,38.17
2018-02-20T15:03:17.111Z,44.13
2018-02-20T15:05:45.338Z,38.30
2018-02-20T15:08:13.618Z,35.53
2018-02-20T15:10:41.818Z,36.80
2018-02-20T15:13:10.883Z,38.30
2018-02-20T15:15:39.051Z,34.43
2018-02-20T15:18:07.322Z,35.20
2018-02-20T15:20:35.506Z,37.97
2018-02-20T15:23:04.102Z,36.33
2018-02-20T15:25:33.713Z,35.63
2018-02-20T15:28:01.866Z,35.50
2018-02-20T15:30:30.031Z,33.03
2018-02-20T15:32:58.176Z,33.70
2018-02-20T15:35:27.115Z,30.07
2018-02-20T15:37:55.253Z,28.67
2018-02-20T15:40:23.391Z,36.00
2018-02-20T15:42:51.573Z,30.17
2018-02-20T15:45:20.506Z,29.50
2018-02-20T15:47:48.678Z,34.03
2018-02-20T15:50:16.826Z,29.00
2018-02-20T15:52:44.990Z,32.07
2018-02-20T15:55:13.931Z,35.90
2018-02-20T15:57:42.193Z,29.87
2018-02-20T16:00:10.359Z,34.57
2018-02-20T16:02:38.544Z,32.00
2018-02-20T16:05:06.719Z,30.67
2018-02-20T16:07:34.871Z,37.07
2018-02-20T16:10:03.008Z,29.20
2018-02-20T16:12:31.974Z,32.80
2018-02-20T16:15:00.189Z,30.77
2018-02-20T16:17:29.094Z,28.80
2018-02-20T16:19:57.266Z,31.23
2018-02-20T16:22:25.442Z,29.37
2018-02-20T16:24:53.631Z,36.95
2018-02-20T16:27:21.810Z,31.92
2018-02-20T16:29:50.910Z,31.90
2018-02-20T16:32:19.079Z,32.28
2018-02-20T16:34:47.225Z,31.27
2018-02-20T16:37:15.386Z,30.52
2018-02-20T16:39:43.552Z,30.10
2018-02-20T16:42:11.863Z,28.95
2018-02-20T16:44:39.998Z,31.87
2018-02-20T16:47:08.940Z,26.70
2018-02-20T16:49:37.116Z,30.88
2018-02-20T16:52:05.276Z,34.83
2018-02-20T16:54:33.418Z,29.55
2018-02-20T16:57:01.562Z,36.15
2018-02-20T16:59:29.787Z,33.10
2018-02-20T17:01:57.930Z,37.92
2018-02-20T17:04:26.848Z,32.80
2018-02-20T17:06:55.003Z,32.55
2018-02-20T17:09:23.290Z,28.90
2018-02-20T17:11:51.426Z,29.25
2018-02-20T17:14:20.362Z,36.55
2018-02-20T17:16:48.493Z,34.50
2018-02-20T17:19:17.440Z,30.98
2018-02-20T17:21:46.374Z,34.25
2018-02-20T17:24:15.314Z,31.58
2018-02-20T17:26:43.561Z,34.17
2018-02-20T17:29:11.694Z,31.60
2018-02-20T17:31:39.857Z,25.08
2018-02-20T17:34:07.991Z,26.37
2018-02-20T17:36:36.174Z,27.52
2018-02-20T17:39:04.367Z,32.72
2018-02-20T17:41:32.521Z,25.27
2018-02-20T17:44:00.666Z,28.38
2018-02-20T17:46:28.829Z,27.50
2018-02-20T17:48:57.770Z,32.05
2018-02-20T17:51:25.916Z,30.48
2018-02-20T17:53:54.050Z,29.83
2018-02-20T17:56:22.986Z,27.98
2018-02-20T17:58:51.142Z,23.00
2018-02-20T18:01:19.284Z,32.30
2018-02-20T18:03:47.530Z,25.35
2018-02-20T18:06:15.669Z,33.50
2018-02-20T18:08:43.829Z,35.13
2018-02-20T18:11:11.961Z,37.80
2018-02-20T18:13:40.191Z,33.05
2018-02-20T18:16:08.351Z,33.88
2018-02-20T18:18:36.514Z,34.22
2018-02-20T18:21:05.410Z,33.00
2018-02-20T18:23:33.547Z,44.92
2018-02-20T18:26:01.777Z,32.00
2018-02-20T18:28:29.914Z,30.52
2018-02-20T18:30:59.003Z,34.00
2018-02-20T18:33:27.914Z,32.67
2018-02-20T18:35:56.122Z,32.00
2018-02-20T18:38:25.094Z,32.03
2018-02-20T18:40:53.231Z,37.30
2018-02-20T18:43:22.138Z,33.97
2018-02-20T18:45:50.305Z,37.17
2018-02-20T18:48:19.291Z,36.55
2018-02-20T18:50:49.248Z,33.40
2018-02-20T18:53:17.410Z,34.70
2018-02-20T18:55:46.146Z,44.53
2018-02-20T18:58:15.095Z,38.05
2018-02-20T19:00:43.522Z,40.15
2018-02-20T19:03:12.450Z,43.72
2018-02-20T19:05:41.963Z,50.05
2018-02-20T19:08:10.122Z,53.95
2018-02-20T19:10:38.261Z,53.83
2018-02-20T19:13:06.513Z,59.60
2018-02-20T19:15:34.652Z,60.47
2018-02-20T19:18:02.796Z,48.00
2018-02-20T19:20:31.718Z,41.88
2018-02-20T19:22:59.893Z,37.15
2018-02-20T19:25:28.060Z,38.45
2018-02-20T19:27:56.210Z,44.42
2018-02-20T19:30:25.157Z,36.92
2018-02-20T19:32:53.327Z,49.38
2018-02-20T19:35:21.469Z,36.88
2018-02-20T19:37:51.197Z,40.35
2018-02-20T19:40:19.339Z,36.55
2018-02-20T19:42:47.555Z,38.22
2018-02-20T19:45:15.723Z,42.88
2018-02-20T19:47:43.873Z,45.25
2018-02-20T19:50:12.035Z,44.72
2018-02-20T19:52:40.248Z,40.55
2018-02-20T19:55:08.750Z,37.38
2018-02-20T19:57:36.971Z,35.28
2018-02-20T20:00:05.158Z,39.45
2018-02-20T20:02:33.303Z,40.55
2018-02-20T20:05:01.896Z,40.83
2018-02-20T20:07:30.071Z,38.13
2018-02-20T20:09:58.256Z,40.85
2018-02-20T20:12:26.414Z,40.05
2018-02-20T20:14:54.949Z,42.70
2018-02-20T20:17:23.190Z,39.85
2018-02-20T20:19:51.903Z,45.25
2018-02-20T20:22:20.087Z,41.65
2018-02-20T20:24:51.438Z,40.92
2018-02-20T20:27:21.305Z,38.97
2018-02-20T20:29:50.083Z,41.78
2018-02-20T20:32:18.729Z,40.90
2018-02-20T20:34:47.797Z,47.45
2018-02-20T20:37:15.935Z,39.00
2018-02-20T20:39:44.208Z,38.35
2018-02-20T20:42:12.358Z,42.53
2018-02-20T20:44:40.497Z,43.28
2018-02-20T20:47:08.734Z,54.83
2018-02-20T20:49:36.906Z,44.80
2018-02-20T20:52:05.362Z,47.83
2018-02-20T20:54:34.505Z,48.78
2018-02-20T20:57:02.683Z,43.03
2018-02-20T20:59:30.850Z,43.03
2018-02-20T21:01:59.098Z,49.22
2018-02-20T21:04:27.234Z,49.08
2018-02-20T21:06:56.156Z,47.62
2018-02-20T21:09:24.318Z,50.10
2018-02-20T21:11:52.454Z,56.42
2018-02-20T21:14:20.680Z,52.58
2018-02-20T21:16:48.845Z,46.20
2018-02-20T21:19:17.002Z,54.63
2018-02-20T21:21:45.173Z,47.17
2018-02-20T21:24:13.535Z,52.55
2018-02-20T21:26:42.462Z,52.25
2018-02-20T21:29:10.634Z,44.20
2018-02-20T21:31:38.798Z,48.90
2018-02-20T21:34:06.939Z,56.22
2018-02-20T21:36:35.876Z,52.90
2018-02-20T21:39:04.024Z,58.83
2018-02-20T21:41:32.221Z,63.20
2018-02-20T21:44:00.353Z,55.50
2018-02-20T21:46:29.274Z,54.55
2018-02-20T21:48:57.434Z,49.42
2018-02-20T21:51:25.566Z,56.67
2018-02-20T21:53:53.744Z,55.80
2018-02-20T21:56:21.914Z,50.92
2018-02-20T21:58:50.866Z,55.40
2018-02-20T22:01:19.026Z,53.63
2018-02-20T22:03:47.190Z,58.90
2018-02-20T22:06:15.391Z,52.42
2018-02-20T22:08:43.505Z,45.03
2018-02-20T22:11:12.410Z,46.70
2018-02-20T22:13:41.329Z,52.90
2018-02-20T22:16:09.503Z,45.00
2018-02-20T22:18:37.666Z,42.78
2018-02-20T22:21:05.851Z,56.70
2018-02-20T22:23:34.029Z,43.90
2018-02-20T22:26:02.192Z,42.35
2018-02-20T22:28:30.820Z,51.20
2018-02-20T22:30:58.994Z,45.15
2018-02-20T22:33:27.136Z,52.22
2018-02-20T22:35:55.265Z,45.45
2018-02-20T22:38:24.215Z,43.15
2018-02-20T22:40:52.355Z,45.83
2018-02-20T22:43:20.494Z,44.40
2018-02-20T22:45:49.417Z,46.45
2018-02-20T22:48:17.565Z,44.30
2018-02-20T22:50:46.514Z,49.55
2018-02-20T22:53:14.645Z,47.50
2018-02-20T22:55:42.777Z,46.88
2018-02-20T22:58:10.955Z,45.70
2018-02-20T23:00:39.096Z,71.65
2018-02-20T23:03:07.253Z,44.60
2018-02-20T23:05:35.410Z,43.75
2018-02-20T23:08:03.566Z,50.20
2018-02-20T23:10:31.700Z,42.42
2018-02-20T23:12:59.858Z,42.92
2018-02-20T23:15:28.031Z,41.45
2018-02-20T23:17:56.168Z,47.45
2018-02-20T23:20:24.338Z,49.10
2018-02-20T23:22:52.482Z,43.22
2018-02-20T23:25:21.386Z,49.72
2018-02-20T23:27:51.133Z,46.30
2018-02-20T23:30:19.286Z,44.30
2018-02-20T23:32:47.426Z,45.70
2018-02-20T23:35:16.352Z,40.92
2018-02-20T23:37:44.518Z,44.20
2018-02-20T23:40:12.650Z,38.35
2018-02-20T23:42:41.802Z,46.97
2018-02-20T23:45:10.059Z,46.10
2018-02-20T23:47:38.202Z,43.80
2018-02-20T23:50:07.109Z,40.67
2018-02-20T23:52:36.131Z,45.45
2018-02-20T23:55:04.262Z,49.92
2018-02-20T23:57:32.422Z,47.05
